Time,TemperatureF,DewpointF,PressureIn,WindDirection,WindDirectionDegrees,WindSpeedMPH,WindSpeedGustMPH,Humidity,HourlyPrecipIn,Conditions,Clouds,dailyrainin,SoftwareType,DateUTC
2013-12-26 00:13:00,26.0,23.0,27.14,WSW,252,9.0,11.0,88,0.00,,,-99.99,,2013-12-26 06:13:00,
2013-12-26 00:18:00,26.0,23.0,27.15,WSW,248,8.0,10.0,88,0.00,,,-99.99,,2013-12-26 06:18:00,
2013-12-26 00:33:00,26.0,23.0,27.14,WSW,254,9.0,10.0,88,0.00,,,-99.99,,2013-12-26 06:33:00,
2013-12-26 00:38:00,25.0,21.0,27.14,WSW,244,8.0,11.0,87,0.00,,,-99.99,,2013-12-26 06:38:00,
2013-12-26 00:53:00,26.0,23.0,27.14,WSW,245,10.0,14.0,86,0.00,,,-99.99,,2013-12-26 06:53:00,
2013-12-26 00:58:00,26.0,23.0,27.13,SW,231,9.0,12.0,87,0.00,,,-99.99,,2013-12-26 06:58:00,
2013-12-26 01:13:00,25.0,21.0,27.12,SW,230,9.0,12.0,86,0.00,,,-99.99,,2013-12-26 07:13:00,
2013-12-26 01:18:00,25.0,21.0,27.12,SW,226,9.0,12.0,86,0.00,,,-99.99,,2013-12-26 07:18:00,
2013-12-26 01:28:00,25.0,21.0,27.11,WSW,237,11.0,15.0,87,0.00,,,-99.99,,2013-12-26 07:28:00,
2013-12-26 01:33:00,25.0,21.0,27.11,WSW,250,12.0,15.0,87,0.00,,,-99.99,,2013-12-26 07:33:00,
2013-12-26 01:38:00,25.0,21.0,27.10,WSW,240,11.0,15.0,86,0.00,,,-99.99,,2013-12-26 07:38:00,
2013-12-26 01:48:00,25.0,21.0,27.10,WSW,240,11.0,13.0,86,0.00,,,-99.99,,2013-12-26 07:48:00,
2013-12-26 01:53:00,25.0,21.0,27.10,WSW,241,11.0,13.0,86,0.00,,,-99.99,,2013-12-26 07:53:00,
2013-12-26 01:58:00,25.0,21.0,27.10,WSW,248,10.0,13.0,86,0.00,,,-99.99,,2013-12-26 07:58:00,
2013-12-26 02:08:00,25.0,21.0,27.10,WSW,247,11.0,14.0,86,0.00,,,-99.99,,2013-12-26 08:08:00,
2013-12-26 02:13:00,25.0,21.0,27.10,WSW,258,11.0,16.0,86,0.00,,,-99.99,,2013-12-26 08:13:00,
2013-12-26 02:18:00,25.0,21.0,27.10,WSW,247,12.0,16.0,86,0.00,,,-99.99,,2013-12-26 08:18:00,
2013-12-26 02:23:00,26.0,23.0,27.10,WSW,258,12.0,16.0,85,0.00,,,-99.99,,2013-12-26 08:23:00,
2013-12-26 02:28:00,26.0,21.0,27.09,WSW,250,12.0,15.0,84,0.00,,,-99.99,,2013-12-26 08:28:00,
2013-12-26 02:33:00,26.0,21.0,27.10,WSW,250,12.0,15.0,83,0.00,,,-99.99,,2013-12-26 08:33:00,
2013-12-26 02:48:00,26.0,21.0,27.09,West,269,11.0,13.0,83,0.00,,,-99.99,,2013-12-26 08:48:00,
2013-12-26 02:53:00,26.0,21.0,27.09,WSW,250,12.0,15.0,83,0.00,,,-99.99,,2013-12-26 08:53:00,
2013-12-26 03:03:00,25.0,21.0,27.09,WSW,243,9.0,13.0,84,0.00,,,-99.99,,2013-12-26 09:03:00,
2013-12-26 03:08:00,25.0,21.0,27.09,WSW,250,9.0,12.0,84,0.00,,,-99.99,,2013-12-26 09:08:00,
2013-12-26 03:13:00,25.0,21.0,27.09,WSW,238,9.0,12.0,84,0.00,,,-99.99,,2013-12-26 09:13:00,
2013-12-26 03:28:00,25.0,21.0,27.09,West,269,10.0,13.0,85,0.00,,,-99.99,,2013-12-26 09:28:00,
2013-12-26 03:33:00,25.0,21.0,27.10,WSW,254,10.0,12.0,85,0.00,,,-99.99,,2013-12-26 09:33:00,
2013-12-26 03:48:00,25.0,21.0,27.09,WSW,250,9.0,12.0,85,0.00,,,-99.99,,2013-12-26 09:48:00,
2013-12-26 03:53:00,25.0,21.0,27.09,WSW,244,9.0,12.0,85,0.00,,,-99.99,,2013-12-26 09:53:00,
2013-12-26 03:58:00,25.0,21.0,27.09,WSW,252,10.0,13.0,85,0.00,,,-99.99,,2013-12-26 09:58:00,
2013-12-26 04:08:00,25.0,21.0,27.08,WSW,252,10.0,12.0,86,0.00,,,-99.99,,2013-12-26 10:08:00,
2013-12-26 04:13:00,25.0,21.0,27.07,WSW,247,10.0,13.0,86,0.00,,,-99.99,,2013-12-26 10:13:00,
2013-12-26 04:18:00,25.0,21.0,27.07,WSW,244,10.0,14.0,86,0.00,,,-99.99,,2013-12-26 10:18:00,
2013-12-26 04:33:00,25.0,21.0,27.07,WSW,245,12.0,15.0,86,0.00,,,-99.99,,2013-12-26 10:33:00,
2013-12-26 04:38:00,25.0,21.0,27.07,WSW,254,11.0,15.0,86,0.00,,,-99.99,,2013-12-26 10:38:00,
2013-12-26 04:53:00,25.0,21.0,27.07,WSW,258,11.0,16.0,87,0.00,,,-99.99,,2013-12-26 10:53:00,
2013-12-26 04:58:00,25.0,21.0,27.07,West,261,11.0,14.0,87,0.00,,,-99.99,,2013-12-26 10:58:00,
2013-12-26 05:03:00,25.0,21.0,27.08,West,281,11.0,14.0,87,0.00,,,-99.99,,2013-12-26 11:03:00,
2013-12-26 05:13:00,25.0,21.0,27.08,WNW,285,8.0,10.0,87,0.00,,,-99.99,,2013-12-26 11:13:00,
2013-12-26 05:18:00,25.0,21.0,27.08,WNW,292,9.0,11.0,88,0.00,,,-99.99,,2013-12-26 11:18:00,
2013-12-26 05:23:00,25.0,21.0,27.07,WNW,286,9.0,11.0,88,0.00,,,-99.99,,2013-12-26 11:23:00,
2013-12-26 05:33:00,24.0,21.0,27.08,West,269,7.0,8.0,89,0.00,,,-99.99,,2013-12-26 11:33:00,
2013-12-26 05:38:00,24.0,21.0,27.08,West,272,7.0,8.0,90,0.00,,,-99.99,,2013-12-26 11:38:00,
2013-12-26 05:43:00,24.0,21.0,27.07,WNW,282,7.0,9.0,90,0.00,,,-99.99,,2013-12-26 11:43:00,
2013-12-26 05:58:00,23.0,21.0,27.07,West,266,9.0,13.0,90,0.00,,,-99.99,,2013-12-26 11:58:00,
2013-12-26 06:03:00,24.0,21.0,27.07,West,278,9.0,12.0,91,0.00,,,-99.99,,2013-12-26 12:03:00,
2013-12-26 06:18:00,24.0,21.0,27.08,WNW,290,9.0,12.0,90,0.00,,,-99.99,,2013-12-26 12:18:00,
2013-12-26 06:23:00,25.0,23.0,27.08,WNW,285,9.0,12.0,90,0.00,,,-99.99,,2013-12-26 12:23:00,
2013-12-26 06:28:00,25.0,23.0,27.09,West,262,9.0,12.0,90,0.00,,,-99.99,,2013-12-26 12:28:00,
2013-12-26 06:38:00,25.0,23.0,27.09,West,279,8.0,11.0,90,0.00,,,-99.99,,2013-12-26 12:38:00,
2013-12-26 06:43:00,26.0,23.0,27.09,West,278,7.0,9.0,89,0.00,,,-99.99,,2013-12-26 12:43:00,
2013-12-26 06:48:00,26.0,23.0,27.09,West,268,7.0,9.0,88,0.00,,,-99.99,,2013-12-26 12:48:00,
2013-12-26 06:58:00,24.0,21.0,27.09,WSW,258,8.0,10.0,89,0.00,,,-99.99,,2013-12-26 12:58:00,
2013-12-26 07:03:00,24.0,21.0,27.09,West,268,8.0,9.0,90,0.00,,,-99.99,,2013-12-26 13:03:00,
2013-12-26 07:08:00,24.0,21.0,27.09,West,274,8.0,9.0,90,0.00,,,-99.99,,2013-12-26 13:08:00,
2013-12-26 07:18:00,25.0,23.0,27.10,WNW,293,10.0,11.0,90,0.00,,,-99.99,,2013-12-26 13:18:00,
2013-12-26 07:23:00,25.0,23.0,27.10,WNW,293,10.0,11.0,90,0.00,,,-99.99,,2013-12-26 13:23:00,
2013-12-26 07:28:00,25.0,23.0,27.10,WNW,288,8.0,9.0,89,0.00,,,-99.99,,2013-12-26 13:28:00,
2013-12-26 07:33:00,26.0,23.0,27.10,West,274,7.0,9.0,89,0.00,,,-99.99,,2013-12-26 13:33:00,
2013-12-26 07:38:00,27.0,25.0,27.10,WNW,288,2.0,6.0,88,0.00,,,-99.99,,2013-12-26 13:38:00,
2013-12-26 07:43:00,26.0,23.0,27.10,West,265,8.0,11.0,86,0.00,,,-99.99,,2013-12-26 13:43:00,
2013-12-26 07:48:00,26.0,23.0,27.10,West,266,10.0,11.0,87,0.00,,,-99.99,,2013-12-26 13:48:00,
2013-12-26 07:53:00,26.0,23.0,27.10,WNW,285,9.0,11.0,87,0.00,,,-99.99,,2013-12-26 13:53:00,
2013-12-26 07:58:00,26.0,23.0,27.10,West,272,9.0,12.0,87,0.00,,,-99.99,,2013-12-26 13:58:00,
2013-12-26 08:03:00,26.0,23.0,27.10,WSW,255,9.0,11.0,87,0.00,,,-99.99,,2013-12-26 14:03:00,
2013-12-26 08:08:00,26.0,23.0,27.10,West,275,8.0,11.0,87,0.00,,,-99.99,,2013-12-26 14:08:00,
2013-12-26 08:18:00,26.0,23.0,27.11,WSW,251,7.0,9.0,86,0.00,,,-99.99,,2013-12-26 14:18:00,
2013-12-26 08:23:00,25.0,21.0,27.11,WSW,254,9.0,10.0,86,0.00,,,-99.99,,2013-12-26 14:23:00,
2013-12-26 08:28:00,24.0,21.0,27.10,WSW,255,9.0,11.0,88,0.00,,,-99.99,,2013-12-26 14:28:00,
2013-12-26 08:38:00,25.0,23.0,27.10,West,276,9.0,12.0,89,0.00,,,-99.99,,2013-12-26 14:38:00,
2013-12-26 08:43:00,26.0,23.0,27.10,West,264,8.0,10.0,88,0.00,,,-99.99,,2013-12-26 14:43:00,
2013-12-26 08:48:00,26.0,23.0,27.10,WSW,254,9.0,11.0,88,0.00,,,-99.99,,2013-12-26 14:48:00,
2013-12-26 08:53:00,27.0,23.0,27.10,WSW,252,8.0,11.0,87,0.00,,,-99.99,,2013-12-26 14:53:00,
2013-12-26 08:58:00,26.0,23.0,27.11,WSW,243,8.0,10.0,86,0.00,,,-99.99,,2013-12-26 14:58:00,
2013-12-26 09:03:00,26.0,23.0,27.12,SW,234,8.0,9.0,88,0.00,,,-99.99,,2013-12-26 15:03:00,
2013-12-26 09:08:00,26.0,23.0,27.12,West,276,7.0,11.0,89,0.00,,,-99.99,,2013-12-26 15:08:00,
2013-12-26 09:13:00,27.0,25.0,27.12,WNW,283,7.0,9.0,89,0.00,,,-99.99,,2013-12-26 15:13:00,
2013-12-26 09:23:00,30.0,27.0,27.12,WNW,295,6.0,7.0,87,0.00,,,-99.99,,2013-12-26 15:23:00,
2013-12-26 09:28:00,32.0,28.0,27.12,WNW,296,8.0,11.0,85,0.00,,,-99.99,,2013-12-26 15:28:00,
2013-12-26 09:43:00,38.0,30.0,27.13,NW,317,12.0,14.0,74,0.00,,,-99.99,,2013-12-26 15:43:00,
2013-12-26 09:48:00,39.0,30.0,27.13,NW,324,13.0,15.0,73,0.00,,,-99.99,,2013-12-26 15:48:00,
2013-12-26 09:53:00,39.0,30.0,27.14,NNW,329,12.0,14.0,73,0.00,,,-99.99,,2013-12-26 15:53:00,
2013-12-26 10:13:00,40.0,30.0,27.14,NW,320,15.0,18.0,67,0.00,,,-99.99,,2013-12-26 16:13:00,
2013-12-26 10:18:00,41.0,30.0,27.14,NW,316,15.0,19.0,66,0.00,,,-99.99,,2013-12-26 16:18:00,
2013-12-26 10:23:00,42.0,32.0,27.14,NW,319,16.0,20.0,65,0.00,,,-99.99,,2013-12-26 16:23:00,
2013-12-26 10:43:00,43.0,30.0,27.16,NW,319,16.0,21.0,62,0.00,,,-99.99,,2013-12-26 16:43:00,
2013-12-26 10:48:00,43.0,30.0,27.16,NW,307,16.0,19.0,61,0.00,,,-99.99,,2013-12-26 16:48:00,
2013-12-26 10:53:00,43.0,30.0,27.16,NNW,333,17.0,19.0,60,0.00,,,-99.99,,2013-12-26 16:53:00,
2013-12-26 11:08:00,44.0,30.0,27.16,NW,324,17.0,21.0,59,0.00,,,-99.99,,2013-12-26 17:08:00,
2013-12-26 11:13:00,45.0,32.0,27.16,NNW,327,17.0,20.0,59,0.00,,,-99.99,,2013-12-26 17:13:00,
2013-12-26 11:18:00,45.0,32.0,27.16,NW,323,17.0,19.0,59,0.00,,,-99.99,,2013-12-26 17:18:00,
2013-12-26 11:33:00,46.0,32.0,27.15,NW,314,15.0,17.0,58,0.00,,,-99.99,,2013-12-26 17:33:00,
2013-12-26 11:38:00,47.0,32.0,27.15,NW,326,14.0,17.0,56,0.00,,,-99.99,,2013-12-26 17:38:00,
2013-12-26 11:43:00,47.0,34.0,27.15,NW,323,15.0,19.0,58,0.00,,,-99.99,,2013-12-26 17:43:00,
2013-12-26 11:53:00,47.0,32.0,27.15,NW,323,18.0,20.0,55,0.00,,,-99.99,,2013-12-26 17:53:00,
2013-12-26 11:58:00,47.0,32.0,27.15,NW,326,17.0,20.0,55,0.00,,,-99.99,,2013-12-26 17:58:00,
2013-12-26 12:03:00,48.0,32.0,27.15,NW,316,17.0,19.0,55,0.00,,,-99.99,,2013-12-26 18:03:00,
2013-12-26 12:08:00,48.0,32.0,27.15,NNW,331,17.0,19.0,54,0.00,,,-99.99,,2013-12-26 18:08:00,
2013-12-26 12:13:00,48.0,32.0,27.15,NNW,329,17.0,19.0,54,0.00,,,-99.99,,2013-12-26 18:13:00,
2013-12-26 12:18:00,48.0,32.0,27.15,NW,324,16.0,17.0,54,0.00,,,-99.99,,2013-12-26 18:18:00,
2013-12-26 12:23:00,49.0,34.0,27.15,NNW,337,14.0,16.0,54,0.00,,,-99.99,,2013-12-26 18:23:00,
2013-12-26 12:28:00,49.0,32.0,27.14,NW,312,15.0,17.0,53,0.00,,,-99.99,,2013-12-26 18:28:00,
2013-12-26 12:33:00,50.0,34.0,27.14,NNW,329,12.0,14.0,54,0.00,,,-99.99,,2013-12-26 18:33:00,
2013-12-26 12:38:00,50.0,34.0,27.14,NW,309,14.0,15.0,54,0.00,,,-99.99,,2013-12-26 18:38:00,
2013-12-26 12:53:00,50.0,34.0,27.13,NW,323,14.0,16.0,52,0.00,,,-99.99,,2013-12-26 18:53:00,
2013-12-26 12:58:00,50.0,34.0,27.13,NNW,336,13.0,15.0,52,0.00,,,-99.99,,2013-12-26 18:58:00,
2013-12-26 13:03:00,51.0,34.0,27.13,NNW,327,14.0,16.0,51,0.00,,,-99.99,,2013-12-26 19:03:00,
2013-12-26 13:18:00,51.0,34.0,27.13,NW,323,14.0,17.0,51,0.00,,,-99.99,,2013-12-26 19:18:00,
2013-12-26 18:43:00,38.0,30.0,27.14,NW,323,9.0,10.0,74,0.00,,,-99.99,,2013-12-27 00:43:00,
2013-12-26 18:58:00,39.0,32.0,27.14,NNW,331,6.0,7.0,74,0.00,,,-99.99,,2013-12-27 00:58:00,
2013-12-26 19:03:00,40.0,32.0,27.14,NNW,327,6.0,7.0,72,0.00,,,-99.99,,2013-12-27 01:03:00,
2013-12-26 19:08:00,40.0,32.0,27.15,NW,321,6.0,6.0,72,0.00,,,-99.99,,2013-12-27 01:08:00,
2013-12-26 19:13:00,40.0,32.0,27.15,North,0,0.0,0.0,71,0.00,,,-99.99,,2013-12-27 01:13:00,
2013-12-26 19:23:00,38.0,30.0,27.15,North,0,0.0,0.0,74,0.00,,,-99.99,,2013-12-27 01:23:00,
2013-12-26 19:28:00,38.0,30.0,27.15,North,0,0.0,0.0,75,0.00,,,-99.99,,2013-12-27 01:28:00,
2013-12-26 19:33:00,38.0,30.0,27.15,NW,307,6.0,7.0,75,0.00,,,-99.99,,2013-12-27 01:33:00,
2013-12-26 19:38:00,37.0,30.0,27.15,North,0,0.0,0.0,75,0.00,,,-99.99,,2013-12-27 01:38:00,
2013-12-26 19:48:00,36.0,28.0,27.15,North,0,0.0,0.0,76,0.00,,,-99.99,,2013-12-27 01:48:00,
2013-12-26 19:53:00,36.0,28.0,27.15,North,0,0.0,0.0,76,0.00,,,-99.99,,2013-12-27 01:53:00,
2013-12-26 19:58:00,35.0,28.0,27.15,North,0,0.0,0.0,78,0.00,,,-99.99,,2013-12-27 01:58:00,
2013-12-26 20:13:00,35.0,30.0,27.15,NW,320,9.0,10.0,80,0.00,,,-99.99,,2013-12-27 02:13:00,
2013-12-26 20:18:00,35.0,30.0,27.15,NW,314,8.0,9.0,80,0.00,,,-99.99,,2013-12-27 02:18:00,
2013-12-26 20:23:00,36.0,30.0,27.15,NW,310,8.0,9.0,79,0.00,,,-99.99,,2013-12-27 02:23:00,
2013-12-26 20:38:00,34.0,28.0,27.15,SW,217,6.0,7.0,78,0.00,,,-99.99,,2013-12-27 02:38:00,
2013-12-26 20:43:00,33.0,28.0,27.16,SW,221,6.0,6.0,80,0.00,,,-99.99,,2013-12-27 02:43:00,
2013-12-26 20:48:00,33.0,28.0,27.16,WSW,245,5.0,6.0,82,0.00,,,-99.99,,2013-12-27 02:48:00,
2013-12-26 20:53:00,34.0,28.0,27.16,SW,235,6.0,6.0,81,0.00,,,-99.99,,2013-12-27 02:53:00,
2013-12-26 21:03:00,34.0,28.0,27.16,WSW,245,5.0,5.0,80,0.00,,,-99.99,,2013-12-27 03:03:00,
2013-12-26 21:08:00,33.0,28.0,27.16,SW,231,5.0,5.0,80,0.00,,,-99.99,,2013-12-27 03:08:00,
2013-12-26 21:13:00,33.0,28.0,27.16,WSW,238,6.0,6.0,81,0.00,,,-99.99,,2013-12-27 03:13:00,
2013-12-26 21:18:00,33.0,28.0,27.16,WSW,248,5.0,6.0,81,0.00,,,-99.99,,2013-12-27 03:18:00,
2013-12-26 21:28:00,32.0,27.0,27.16,SW,234,4.0,6.0,81,0.00,,,-99.99,,2013-12-27 03:28:00,
2013-12-26 21:33:00,32.0,27.0,27.16,SW,226,5.0,6.0,82,0.00,,,-99.99,,2013-12-27 03:33:00,
2013-12-26 21:38:00,32.0,27.0,27.16,SW,227,6.0,7.0,83,0.00,,,-99.99,,2013-12-27 03:38:00,
2013-12-26 21:53:00,32.0,27.0,27.17,WSW,238,6.0,7.0,83,0.00,,,-99.99,,2013-12-27 03:53:00,
2013-12-26 21:58:00,32.0,27.0,27.17,WSW,240,6.0,7.0,82,0.00,,,-99.99,,2013-12-27 03:58:00,
2013-12-26 22:08:00,33.0,28.0,27.17,WSW,238,7.0,8.0,83,0.00,,,-99.99,,2013-12-27 04:08:00,
2013-12-26 22:13:00,33.0,28.0,27.17,WSW,238,7.0,8.0,82,0.00,,,-99.99,,2013-12-27 04:13:00,
2013-12-26 22:18:00,33.0,28.0,27.17,WSW,240,6.0,8.0,82,0.00,,,-99.99,,2013-12-27 04:18:00,
2013-12-26 22:23:00,34.0,28.0,27.17,WSW,244,6.0,8.0,82,0.00,,,-99.99,,2013-12-27 04:23:00,
2013-12-26 22:38:00,34.0,28.0,27.17,WSW,252,5.0,6.0,80,0.00,,,-99.99,,2013-12-27 04:38:00,
2013-12-26 22:43:00,35.0,30.0,27.17,WNW,302,7.0,8.0,80,0.00,,,-99.99,,2013-12-27 04:43:00,
2013-12-26 22:48:00,35.0,30.0,27.17,WSW,247,8.0,9.0,80,0.00,,,-99.99,,2013-12-27 04:48:00,
2013-12-26 23:03:00,35.0,28.0,27.17,West,278,7.0,9.0,79,0.00,,,-99.99,,2013-12-27 05:03:00,
2013-12-26 23:08:00,36.0,30.0,27.17,WSW,248,4.0,8.0,79,0.00,,,-99.99,,2013-12-27 05:08:00,
2013-12-26 23:13:00,36.0,30.0,27.17,WSW,247,6.0,8.0,78,0.00,,,-99.99,,2013-12-27 05:13:00,
2013-12-26 23:28:00,34.0,28.0,27.17,North,0,0.0,0.0,79,0.00,,,-99.99,,2013-12-27 05:28:00,
2013-12-26 23:33:00,33.0,28.0,27.17,SW,235,6.0,6.0,80,0.00,,,-99.99,,2013-12-27 05:33:00,
2013-12-26 23:38:00,32.0,27.0,27.17,SW,233,6.0,6.0,81,0.00,,,-99.99,,2013-12-27 05:38:00,
2013-12-26 23:53:00,30.0,27.0,27.18,North,0,0.0,0.0,85,0.00,,,-99.99,,2013-12-27 05:53:00,
2013-12-26 23:58:00,30.0,27.0,27.18,WSW,243,6.0,8.0,85,0.00,,,-99.99,,2013-12-27 05:58:00,